createdAt,value
2019-06-20T00:00:58.324Z,11.27
2019-06-20T00:03:30.651Z,11.33
2019-06-20T00:06:02.899Z,11.20
2019-06-20T00:08:35.124Z,12.57
2019-06-20T00:11:07.403Z,10.73
2019-06-20T00:13:39.607Z,11.47
2019-06-20T00:16:11.813Z,11.73
2019-06-20T00:18:44.151Z,12.30
2019-06-20T00:21:16.375Z,11.97
2019-06-20T00:23:48.589Z,12.77
2019-06-20T00:26:20.870Z,11.10
2019-06-20T00:28:54.205Z,14.07
2019-06-20T00:31:26.425Z,12.80
2019-06-20T00:33:58.641Z,13.63
2019-06-20T00:36:30.890Z,12.80
2019-06-20T00:39:03.088Z,11.60
2019-06-20T00:41:36.979Z,12.77
2019-06-20T00:44:09.203Z,13.33
2019-06-20T00:46:41.478Z,12.17
2019-06-20T00:49:14.818Z,14.27
2019-06-20T00:51:47.043Z,14.23
2019-06-20T00:54:19.272Z,13.47
2019-06-20T00:56:51.543Z,13.43
2019-06-20T00:59:23.748Z,15.60
2019-06-20T01:01:57.106Z,15.33
2019-06-20T01:04:29.370Z,18.03
2019-06-20T01:07:01.615Z,16.70
2019-06-20T01:09:33.887Z,16.00
2019-06-20T01:12:06.078Z,15.27
2019-06-20T01:14:38.312Z,14.93
2019-06-20T01:17:11.541Z,15.97
2019-06-20T01:19:43.843Z,15.23
2019-06-20T01:22:16.053Z,15.47
2019-06-20T01:24:48.366Z,15.53
2019-06-20T01:27:20.582Z,15.37
2019-06-20T01:29:52.790Z,16.83
2019-06-20T01:32:25.085Z,14.70
2019-06-20T01:34:57.383Z,16.27
2019-06-20T01:37:29.624Z,16.40
2019-06-20T01:40:01.930Z,14.30
2019-06-20T01:42:34.269Z,15.77
2019-06-20T01:45:06.499Z,15.30
2019-06-20T01:47:38.712Z,17.27
2019-06-20T01:50:10.986Z,15.67
2019-06-20T01:52:43.225Z,17.00
2019-06-20T01:55:15.454Z,17.07
2019-06-20T01:57:47.737Z,13.07
2019-06-20T02:00:19.941Z,14.77
2019-06-20T02:02:52.182Z,14.60
2019-06-20T02:05:24.418Z,15.97
2019-06-20T02:07:56.745Z,14.43
2019-06-20T02:10:29.073Z,14.70
2019-06-20T02:13:01.326Z,14.87
2019-06-20T02:15:33.554Z,13.13
2019-06-20T02:18:05.822Z,16.53
2019-06-20T02:20:38.013Z,15.03
2019-06-20T02:23:10.213Z,15.10
2019-06-20T02:25:42.487Z,14.03
2019-06-20T02:28:14.742Z,14.03
2019-06-20T02:30:46.936Z,14.33
2019-06-20T02:33:19.197Z,14.63
2019-06-20T02:35:51.512Z,14.40
2019-06-20T02:38:23.688Z,14.27
2019-06-20T02:40:55.951Z,15.43
2019-06-20T02:43:28.146Z,14.93
2019-06-20T02:46:00.406Z,14.03
2019-06-20T02:48:32.620Z,15.07
2019-06-20T02:51:04.841Z,15.27
2019-06-20T02:53:37.098Z,13.63
2019-06-20T02:56:09.353Z,11.87
2019-06-20T02:58:41.605Z,13.47
2019-06-20T03:01:13.839Z,14.87
2019-06-20T03:03:46.077Z,14.77
2019-06-20T03:06:19.022Z,15.30
2019-06-20T03:08:51.267Z,13.43
2019-06-20T03:11:23.535Z,14.67
2019-06-20T03:13:55.807Z,11.67
2019-06-20T03:16:28.134Z,14.50
2019-06-20T03:19:00.347Z,14.63
2019-06-20T03:21:32.558Z,12.70
2019-06-20T03:24:04.844Z,12.07
2019-06-20T03:26:37.080Z,13.13
2019-06-20T03:29:09.361Z,13.97
2019-06-20T03:31:41.623Z,13.00
2019-06-20T03:34:13.893Z,14.27
2019-06-20T03:36:46.183Z,14.33
2019-06-20T03:39:18.443Z,14.67
2019-06-20T03:41:50.712Z,14.37
2019-06-20T03:44:23.012Z,14.47
2019-06-20T03:46:55.227Z,14.70
2019-06-20T03:49:27.494Z,13.47
2019-06-20T03:51:59.767Z,14.37
2019-06-20T03:54:33.011Z,16.07
2019-06-20T03:57:05.257Z,14.13
2019-06-20T03:59:38.565Z,11.63
2019-06-20T04:02:10.817Z,12.73
2019-06-20T04:04:43.079Z,11.40
2019-06-20T04:07:15.335Z,12.23
2019-06-20T04:09:47.557Z,14.73
2019-06-20T04:12:19.854Z,14.33
2019-06-20T04:14:52.078Z,13.77
2019-06-20T04:17:24.298Z,14.17
2019-06-20T04:19:56.606Z,14.60
2019-06-20T04:22:28.820Z,13.33
2019-06-20T04:25:01.412Z,13.87
2019-06-20T04:27:33.616Z,12.97
2019-06-20T04:30:05.949Z,12.27
2019-06-20T04:32:38.149Z,14.00
2019-06-20T04:35:10.364Z,14.13
2019-06-20T04:37:43.691Z,13.73
2019-06-20T04:40:15.933Z,15.80
2019-06-20T04:42:48.236Z,13.70
2019-06-20T04:45:34.205Z,14.37
2019-06-20T04:47:54.419Z,14.43
2019-06-20T04:50:26.918Z,14.30
2019-06-20T04:52:59.152Z,14.10
2019-06-20T04:55:31.446Z,14.93
2019-06-20T04:58:03.691Z,14.70
2019-06-20T05:00:35.910Z,14.97
2019-06-20T05:03:08.199Z,14.80
2019-06-20T05:05:40.423Z,13.67
2019-06-20T05:08:12.702Z,15.13
2019-06-20T05:10:44.925Z,16.77
2019-06-20T05:13:17.184Z,13.60
2019-06-20T05:15:52.943Z,17.30
2019-06-20T05:18:24.322Z,16.13
2019-06-20T05:20:57.157Z,18.00
2019-06-20T05:23:30.363Z,15.73
2019-06-20T05:26:02.626Z,15.87
2019-06-20T05:28:34.880Z,14.57
2019-06-20T05:31:07.100Z,15.50
2019-06-20T05:33:39.372Z,16.27
2019-06-20T05:36:11.665Z,16.03
2019-06-20T05:38:43.891Z,14.33
2019-06-20T05:41:16.194Z,12.77
2019-06-20T05:43:48.447Z,13.37
2019-06-20T05:46:20.766Z,13.33
2019-06-20T05:48:53.004Z,12.43
2019-06-20T05:51:25.351Z,12.97
2019-06-20T05:53:57.559Z,12.57
2019-06-20T05:56:29.942Z,13.50
2019-06-20T05:59:02.037Z,12.83
2019-06-20T06:01:34.299Z,13.30
2019-06-20T06:04:06.507Z,12.20
2019-06-20T06:06:38.768Z,13.00
2019-06-20T06:09:10.985Z,11.80
2019-06-20T06:11:43.228Z,10.70
2019-06-20T06:14:15.565Z,12.83
2019-06-20T06:16:47.807Z,13.07
2019-06-20T06:19:20.007Z,11.53
2019-06-20T06:21:52.263Z,13.63
2019-06-20T06:24:24.465Z,13.43
2019-06-20T06:26:59.709Z,13.23
2019-06-20T06:29:30.652Z,13.50
2019-06-20T06:32:02.848Z,12.17
2019-06-20T06:34:35.078Z,12.20
2019-06-20T06:37:07.349Z,11.30
2019-06-20T06:39:43.276Z,12.60
2019-06-20T06:42:15.758Z,12.40
2019-06-20T06:44:47.980Z,10.70
2019-06-20T06:47:20.276Z,11.07
2019-06-20T06:49:52.539Z,11.40
2019-06-20T06:52:24.731Z,10.20
2019-06-20T06:54:56.961Z,10.17
2019-06-20T06:57:29.190Z,8.87
2019-06-20T07:00:01.411Z,8.33
2019-06-20T07:02:34.844Z,9.30
2019-06-20T07:05:07.084Z,9.17
2019-06-20T07:07:39.311Z,8.50
2019-06-20T07:10:11.693Z,8.27
2019-06-20T07:12:46.205Z,9.87
2019-06-20T07:15:18.700Z,9.60
2019-06-20T07:17:50.888Z,9.70
2019-06-20T07:20:23.367Z,9.40
2019-06-20T07:22:55.695Z,10.43
2019-06-20T07:25:27.722Z,8.80
2019-06-20T07:27:59.967Z,8.93
2019-06-20T07:30:32.246Z,9.57
2019-06-20T07:33:04.759Z,7.73
2019-06-20T07:35:37.010Z,7.73
2019-06-20T07:38:09.256Z,7.03
2019-06-20T07:40:41.526Z,7.30
2019-06-20T07:43:13.885Z,6.70
2019-06-20T07:46:01.415Z,6.93
2019-06-20T07:48:20.015Z,6.93
2019-06-20T07:50:52.222Z,8.30
2019-06-20T07:53:24.460Z,6.30
2019-06-20T07:55:56.744Z,6.83
2019-06-20T07:58:28.955Z,7.90
2019-06-20T08:01:01.253Z,7.13
2019-06-20T08:03:33.493Z,6.83
2019-06-20T08:06:05.719Z,6.57
2019-06-20T08:08:38.124Z,6.63
2019-06-20T08:11:10.316Z,6.73
2019-06-20T08:13:42.542Z,7.17
2019-06-20T08:16:14.850Z,6.17
2019-06-20T08:18:47.066Z,6.90
2019-06-20T08:21:19.266Z,7.37
2019-06-20T08:23:51.538Z,6.97
2019-06-20T08:26:24.783Z,7.33
2019-06-20T08:29:10.397Z,7.27
2019-06-20T08:31:31.005Z,7.00
2019-06-20T08:34:04.403Z,6.50
2019-06-20T08:36:36.736Z,6.63
2019-06-20T08:39:09.024Z,5.57
2019-06-20T08:41:41.285Z,6.07
2019-06-20T08:44:13.601Z,6.07
2019-06-20T08:46:45.835Z,7.17
2019-06-20T08:49:18.054Z,7.13
2019-06-20T08:51:50.303Z,6.73
2019-06-20T08:54:22.509Z,7.20
2019-06-20T08:56:56.109Z,5.57
2019-06-20T08:59:28.718Z,6.40
2019-06-20T09:04:34.871Z,6.97
2019-06-20T09:07:07.152Z,5.57
2019-06-20T09:09:39.324Z,6.80
2019-06-20T09:12:11.525Z,5.73
2019-06-20T09:14:43.787Z,5.67
2019-06-20T09:17:16.008Z,6.20
2019-06-20T09:19:48.250Z,5.63
2019-06-20T09:22:20.519Z,5.27
2019-06-20T09:24:53.663Z,5.40
2019-06-20T09:27:27.097Z,5.90
2019-06-20T09:30:00.407Z,5.70
2019-06-20T09:32:32.729Z,6.30
2019-06-20T09:35:04.924Z,6.03
2019-06-20T09:37:37.124Z,5.20
2019-06-20T09:40:09.375Z,5.97
2019-06-20T09:42:41.638Z,5.67
2019-06-20T09:45:13.854Z,6.17
2019-06-20T09:47:46.136Z,6.23
2019-06-20T09:50:18.387Z,5.33
2019-06-20T09:52:51.648Z,6.13
2019-06-20T09:55:24.728Z,6.30
2019-06-20T09:57:58.181Z,5.70
2019-06-20T10:00:30.583Z,5.57
2019-06-20T10:03:02.836Z,5.00
2019-06-20T10:05:35.081Z,5.77
2019-06-20T10:08:07.315Z,6.17
2019-06-20T10:10:39.578Z,5.80
2019-06-20T10:13:11.818Z,6.20
2019-06-20T10:15:44.938Z,4.47
2019-06-20T10:18:18.037Z,4.83
2019-06-20T10:20:51.124Z,5.03
2019-06-20T10:23:23.463Z,5.10
2019-06-20T10:25:55.658Z,5.30
2019-06-20T10:28:27.954Z,4.03
2019-06-20T10:31:00.248Z,4.70
2019-06-20T10:33:32.554Z,4.73
2019-06-20T10:36:04.810Z,5.00
2019-06-20T10:38:37.093Z,4.27
2019-06-20T10:41:09.335Z,3.97
2019-06-20T10:43:41.590Z,4.53
2019-06-20T10:46:13.809Z,4.33
2019-06-20T10:48:46.072Z,4.40
2019-06-20T10:51:18.344Z,4.20
2019-06-20T10:53:51.404Z,4.13
2019-06-20T10:56:24.761Z,4.33
2019-06-20T10:58:56.996Z,3.60
2019-06-20T11:01:29.215Z,3.70
2019-06-20T11:04:01.480Z,2.67
2019-06-20T11:06:34.768Z,3.87
2019-06-20T11:09:06.860Z,2.40
2019-06-20T11:11:40.142Z,2.67
2019-06-20T11:14:13.075Z,1.83
2019-06-20T11:16:45.297Z,2.67
2019-06-20T11:19:18.689Z,2.23
2019-06-20T11:21:50.918Z,1.90
2019-06-20T11:24:23.393Z,1.27
2019-06-20T11:26:55.667Z,0.80
2019-06-20T11:29:28.421Z,0.70
2019-06-20T11:32:00.709Z,0.70
2019-06-20T11:34:33.019Z,0.63
2019-06-20T11:37:05.332Z,1.27
2019-06-20T11:39:38.919Z,0.60
2019-06-20T11:42:11.400Z,1.00
2019-06-20T11:44:43.673Z,0.70
2019-06-20T11:47:15.916Z,1.00
2019-06-20T11:49:48.179Z,0.90
2019-06-20T11:52:20.368Z,0.70
2019-06-20T11:54:52.682Z,0.97
2019-06-20T11:57:24.827Z,1.27
2019-06-20T11:59:57.087Z,0.90
2019-06-20T12:02:29.523Z,0.87
2019-06-20T12:05:01.746Z,1.00
2019-06-20T12:07:33.968Z,1.10
2019-06-20T12:10:06.184Z,1.03
2019-06-20T12:12:39.595Z,1.50
2019-06-20T12:15:12.358Z,1.27
2019-06-20T12:17:45.328Z,1.22
2019-06-20T12:20:19.302Z,0.90
2019-06-20T12:22:51.971Z,1.00
2019-06-20T12:25:24.206Z,1.30
2019-06-20T12:27:57.032Z,1.30
2019-06-20T12:30:29.827Z,1.25
2019-06-20T12:33:02.604Z,1.00
2019-06-20T12:35:35.440Z,1.55
2019-06-20T12:38:08.216Z,1.07
2019-06-20T12:40:42.426Z,1.07
2019-06-20T12:43:15.773Z,1.00
2019-06-20T12:45:49.532Z,0.82
2019-06-20T12:48:22.442Z,0.95
2019-06-20T12:50:55.471Z,1.05
2019-06-20T12:53:27.734Z,0.77
2019-06-20T12:55:59.910Z,0.90
2019-06-20T12:58:32.204Z,0.77
2019-06-20T13:01:04.463Z,0.90
2019-06-20T13:03:38.591Z,0.93
2019-06-20T13:06:10.852Z,1.00
2019-06-20T13:08:43.650Z,0.70
2019-06-20T13:11:16.478Z,0.90
2019-06-20T13:13:49.213Z,1.00
2019-06-20T13:16:21.593Z,0.87
2019-06-20T13:18:54.799Z,0.90
2019-06-20T13:21:27.257Z,0.73
2019-06-20T13:23:59.905Z,1.20
2019-06-20T13:26:32.744Z,1.00
2019-06-20T13:29:05.552Z,0.85
2019-06-20T13:31:56.237Z,1.07
2019-06-20T13:34:12.965Z,1.10
2019-06-20T13:36:47.011Z,1.15
2019-06-20T13:39:20.085Z,0.90
2019-06-20T13:41:53.222Z,1.00
2019-06-20T13:44:26.038Z,1.00
2019-06-20T13:46:58.876Z,1.10
2019-06-20T13:49:31.977Z,1.10
2019-06-20T13:52:04.822Z,1.05
2019-06-20T13:54:39.665Z,1.00
2019-06-20T13:57:12.156Z,0.82
2019-06-20T13:59:45.702Z,1.05
2019-06-20T14:02:18.803Z,1.07
2019-06-20T14:04:51.560Z,1.00
2019-06-20T14:07:24.406Z,1.10
2019-06-20T14:09:57.201Z,1.30
2019-06-20T14:12:30.099Z,1.05
2019-06-20T14:15:02.902Z,1.85
2019-06-20T14:17:35.719Z,0.98
2019-06-20T14:20:08.527Z,1.17
2019-06-20T14:22:41.433Z,1.43
2019-06-20T14:25:14.711Z,1.10
2019-06-20T14:27:48.734Z,1.47
2019-06-20T14:30:20.889Z,1.70
2019-06-20T14:32:54.554Z,1.77
2019-06-20T14:35:28.165Z,1.83
2019-06-20T14:38:00.388Z,1.70
2019-06-20T14:40:32.631Z,1.40
2019-06-20T14:43:04.867Z,1.40
2019-06-20T14:45:38.100Z,1.57
2019-06-20T14:48:10.475Z,1.90
2019-06-20T14:50:46.443Z,1.90
2019-06-20T14:53:18.959Z,1.80
2019-06-20T14:55:51.712Z,1.67
2019-06-20T14:58:24.238Z,2.23
2019-06-20T15:00:56.487Z,2.13
2019-06-20T15:03:28.727Z,2.00
2019-06-20T15:06:02.060Z,2.13
2019-06-20T15:08:34.377Z,1.70
2019-06-20T15:11:06.643Z,1.90
2019-06-20T15:13:38.847Z,2.00
2019-06-20T15:16:11.102Z,2.00
2019-06-20T15:18:46.391Z,1.80
2019-06-20T15:21:17.277Z,1.90
2019-06-20T15:23:50.862Z,1.47
2019-06-20T15:26:23.599Z,1.50
2019-06-20T15:28:57.054Z,1.70
2019-06-20T15:31:29.490Z,1.87
2019-06-20T15:34:01.757Z,1.43
2019-06-20T15:36:34.093Z,1.27
2019-06-20T15:39:06.386Z,1.40
2019-06-20T15:41:39.179Z,1.20
2019-06-20T15:44:11.529Z,1.37
2019-06-20T15:46:43.787Z,1.30
2019-06-20T15:49:16.630Z,1.57
2019-06-20T15:51:49.256Z,1.83
2019-06-20T15:54:24.441Z,1.60
2019-06-20T15:56:55.422Z,1.60
2019-06-20T15:59:27.706Z,1.40
2019-06-20T16:01:59.904Z,2.17
2019-06-20T16:04:32.236Z,2.20
2019-06-20T16:07:04.447Z,1.87
2019-06-20T16:09:36.728Z,2.43
2019-06-20T16:12:09.174Z,2.57
2019-06-20T16:14:41.361Z,2.70
2019-06-20T16:17:13.885Z,3.40
2019-06-20T16:19:46.227Z,2.90
2019-06-20T16:22:18.575Z,3.37
2019-06-20T16:24:50.871Z,3.63
2019-06-20T16:27:23.123Z,3.77
2019-06-20T16:29:55.886Z,3.93
2019-06-20T16:32:28.096Z,5.17
2019-06-20T16:35:00.314Z,5.57
2019-06-20T16:37:32.545Z,5.37
2019-06-20T16:40:04.832Z,5.87
2019-06-20T16:42:37.052Z,5.13
2019-06-20T16:45:09.287Z,5.30
2019-06-20T16:47:42.618Z,5.93
2019-06-20T16:50:15.299Z,5.30
2019-06-20T16:52:47.432Z,4.93
2019-06-20T16:55:19.824Z,4.77
2019-06-20T16:57:52.073Z,3.57
2019-06-20T17:00:24.352Z,3.90
2019-06-20T17:02:56.784Z,6.10
2019-06-20T17:05:29.110Z,4.03
2019-06-20T17:08:01.461Z,4.77
2019-06-20T17:10:33.708Z,4.03
2019-06-20T17:13:06.074Z,4.43
2019-06-20T17:15:38.687Z,4.47
2019-06-20T17:18:11.137Z,4.60
2019-06-20T17:20:43.450Z,4.80
2019-06-20T17:23:15.706Z,4.67
2019-06-20T17:25:47.904Z,4.07
2019-06-20T17:28:20.158Z,3.60
2019-06-20T17:30:52.405Z,3.93
2019-06-20T17:33:24.613Z,3.83
2019-06-20T17:35:56.924Z,3.97
2019-06-20T17:38:29.114Z,4.53
2019-06-20T17:41:01.394Z,3.77
2019-06-20T17:43:33.670Z,3.80
2019-06-20T17:46:06.067Z,4.10
2019-06-20T17:48:38.379Z,3.27
2019-06-20T17:51:10.585Z,4.37
2019-06-20T17:53:42.872Z,4.77
2019-06-20T17:56:17.946Z,3.77
2019-06-20T17:58:50.234Z,4.20
2019-06-20T18:01:22.507Z,3.90
2019-06-20T18:03:54.783Z,4.93
2019-06-20T18:06:27.179Z,3.40
2019-06-20T18:09:01.537Z,4.47
2019-06-20T18:11:35.416Z,3.97
2019-06-20T18:14:07.448Z,4.40
2019-06-20T18:16:39.852Z,4.73
2019-06-20T18:19:12.119Z,3.57
2019-06-20T18:21:44.384Z,4.00
2019-06-20T18:24:16.602Z,3.30
2019-06-20T18:26:49.075Z,2.60
2019-06-20T18:29:21.444Z,2.27
2019-06-20T18:31:53.859Z,2.87
2019-06-20T18:34:30.249Z,2.83
2019-06-20T18:37:01.285Z,2.20
2019-06-20T18:39:33.528Z,2.07
2019-06-20T18:42:06.023Z,2.40
2019-06-20T18:44:38.579Z,2.20
2019-06-20T18:47:10.695Z,2.27
2019-06-20T18:49:42.897Z,2.40
2019-06-20T18:52:15.186Z,2.40
2019-06-20T18:54:47.400Z,2.47
2019-06-20T18:57:19.738Z,2.70
2019-06-20T18:59:52.013Z,1.80
2019-06-20T19:02:24.226Z,2.50
2019-06-20T19:04:56.494Z,2.60
2019-06-20T19:07:28.762Z,2.63
2019-06-20T19:10:01.222Z,1.70
2019-06-20T19:12:33.535Z,1.33
2019-06-20T19:15:05.732Z,2.63
2019-06-20T19:17:38.068Z,1.70
2019-06-20T19:20:10.158Z,1.70
2019-06-20T19:22:42.376Z,2.27
2019-06-20T19:25:14.609Z,2.00
2019-06-20T19:27:47.143Z,2.00
2019-06-20T19:30:19.424Z,2.27
2019-06-20T19:32:51.685Z,2.00
2019-06-20T19:35:23.916Z,1.63
2019-06-20T19:37:56.193Z,1.60
2019-06-20T19:40:28.436Z,1.80
2019-06-20T19:43:00.670Z,1.43
2019-06-20T19:45:32.867Z,1.97
2019-06-20T19:48:06.205Z,1.87
2019-06-20T19:50:38.404Z,1.93
2019-06-20T19:53:10.714Z,1.80
2019-06-20T19:55:42.965Z,1.80
2019-06-20T19:58:15.182Z,1.37
2019-06-20T20:00:47.515Z,2.40
2019-06-20T20:03:19.718Z,1.73
2019-06-20T20:05:51.994Z,1.20
2019-06-20T20:08:24.301Z,2.17
2019-06-20T20:10:56.448Z,2.37
2019-06-20T20:13:28.643Z,1.83
2019-06-20T20:16:00.877Z,2.13
2019-06-20T20:18:33.153Z,2.17
2019-06-20T20:21:05.399Z,2.10
2019-06-20T20:23:37.658Z,1.40
2019-06-20T20:26:09.882Z,1.50
2019-06-20T20:28:42.139Z,2.10
2019-06-20T20:31:14.223Z,1.17
2019-06-20T20:33:46.442Z,1.50
2019-06-20T20:36:24.838Z,1.60
2019-06-20T20:38:52.726Z,1.77
2019-06-20T20:41:24.954Z,1.77
2019-06-20T20:43:58.222Z,1.63
2019-06-20T20:46:30.648Z,1.43
2019-06-20T20:49:03.989Z,1.37
2019-06-20T20:51:36.311Z,1.17
2019-06-20T20:54:08.571Z,1.17
2019-06-20T20:56:40.812Z,0.73
2019-06-20T20:59:13.106Z,1.20
2019-06-20T21:01:45.457Z,1.50
2019-06-20T21:04:17.751Z,1.30
2019-06-20T21:06:51.091Z,1.07
2019-06-20T21:09:23.254Z,1.70
2019-06-20T21:11:55.499Z,1.23
2019-06-20T21:14:27.712Z,1.47
2019-06-20T21:16:59.983Z,2.23
2019-06-20T21:19:32.244Z,1.50
2019-06-20T21:22:04.480Z,1.97
2019-06-20T21:24:36.742Z,1.70
2019-06-20T21:27:08.994Z,1.73
2019-06-20T21:29:41.318Z,1.37
2019-06-20T21:32:13.550Z,1.50
2019-06-20T21:34:45.802Z,1.63
2019-06-20T21:37:17.949Z,1.93
2019-06-20T21:39:50.262Z,2.23
2019-06-20T21:42:22.483Z,1.97
2019-06-20T21:44:54.689Z,1.43
2019-06-20T21:47:28.312Z,1.73
2019-06-20T21:50:00.574Z,1.47
2019-06-20T21:52:33.353Z,2.20
2019-06-20T21:55:06.657Z,2.07
2019-06-20T21:57:38.853Z,1.70
2019-06-20T22:00:11.173Z,1.87
2019-06-20T22:02:45.049Z,1.77
2019-06-20T22:05:17.264Z,1.83
2019-06-20T22:07:49.495Z,1.80
2019-06-20T22:10:21.725Z,1.90
2019-06-20T22:12:53.948Z,1.37
2019-06-20T22:15:26.158Z,1.87
2019-06-20T22:17:58.441Z,1.73
2019-06-20T22:20:31.644Z,1.37
2019-06-20T22:23:03.899Z,1.50
2019-06-20T22:25:36.115Z,1.53
2019-06-20T22:28:08.299Z,2.33
2019-06-20T22:30:40.588Z,1.63
2019-06-20T22:33:12.820Z,1.93
2019-06-20T22:35:46.098Z,2.27
2019-06-20T22:38:18.471Z,1.63
2019-06-20T22:40:50.701Z,1.77
2019-06-20T22:43:22.970Z,2.10
2019-06-20T22:45:55.201Z,1.83
2019-06-20T22:48:27.483Z,2.63
2019-06-20T22:50:59.756Z,1.83
2019-06-20T22:53:31.954Z,2.17
2019-06-20T22:56:04.231Z,1.93
2019-06-20T22:58:36.468Z,1.73
2019-06-20T23:01:08.659Z,1.80
2019-06-20T23:03:40.964Z,2.00
2019-06-20T23:06:13.229Z,1.90
2019-06-20T23:08:45.463Z,1.77
2019-06-20T23:11:18.812Z,1.47
2019-06-20T23:13:51.031Z,1.70
2019-06-20T23:16:23.254Z,2.17
2019-06-20T23:18:55.553Z,1.83
2019-06-20T23:21:27.778Z,1.43
2019-06-20T23:24:00.048Z,1.40
2019-06-20T23:26:32.222Z,1.60
2019-06-20T23:29:04.430Z,1.60
2019-06-20T23:31:36.698Z,2.33
2019-06-20T23:34:08.919Z,1.93
2019-06-20T23:36:41.193Z,1.20
2019-06-20T23:39:13.512Z,2.10
2019-06-20T23:41:45.735Z,1.53
2019-06-20T23:44:17.945Z,1.20
2019-06-20T23:46:50.211Z,1.57
2019-06-20T23:49:22.441Z,2.23
2019-06-20T23:51:54.657Z,1.43
2019-06-20T23:54:26.892Z,1.47
2019-06-20T23:56:59.138Z,1.60
2019-06-20T23:59:31.351Z,2.57
